Terminal Aerodrome Forecast
Issued by NWS

Home | Current Version | Previous Version | Text Only | Print | Product List | Glossary On
Versions: 1 2 3 4 5 6 7 8 9 10 11 12 13 14 15 16 17 18 19 20 21 22 23 24 25 26 27 28 29 30 31 32 33 34 35 36 37
000
FTUS43 KPAH 251409 AAA
TAFOWB
TAF AMD
KOWB 251409Z 2514/2612 18009KT P6SM -SHRA BKN008 OVC015
      TEMPO 2514/2516 5SM SHRA BR SCT008 BKN015
     FM251700 19012KT P6SM VCSH SCT015 BKN040
     FM252300 17009KT P6SM SCT008 BKN025
     FM261000 18005KT 6SM -SHRA BR BKN008=

USA.gov is the U.S. government's official web portal to all federal, state and local government web resources and services.